Time;durP1;ratioP1;P1;durP2;ratioP2;P2;SDS_P1;SDS_P2;PMS_P1;PMS_P2;Temp;Humidity;BMP_temperature;BMP_pressure;BME280_temperature;BME280_humidity;BME280_pressure;Samples;Min_cycle;Max_cycle;Signal;HPM_P1;HPM_P2
2024/02/25 00:02:14;;;;;;;;;;;12.10;84.50;;;;;;4999461;28;82000;-58
2024/02/25 00:04:39;;;;;;;;;;;12.10;84.50;;;;;;4997217;28;82908;-58
2024/02/25 00:07:05;;;;;;;;;;;12.10;84.60;;;;;;5002290;28;81933;-54
2024/02/25 00:09:30;;;;;;;;;;;12.10;84.60;;;;;;4998311;28;82035;-59
2024/02/25 00:11:56;;;;;;;;;;;12.10;84.50;;;;;;4999341;28;82455;-58
2024/02/25 00:14:28;;;;;;;;;;;12.10;84.50;;;;;;4998716;28;81899;-58
2024/02/25 00:16:54;;;;;;;;;;;12.00;84.50;;;;;;5002082;28;82052;-59
2024/02/25 00:19:19;;;;;;;;;;;12.00;84.40;;;;;;4999573;28;82621;-58
2024/02/25 00:21:45;;;;;;;;;;;12.00;84.40;;;;;;4997323;28;81364;-58
2024/02/25 00:24:10;;;;;;;;;;;12.00;84.40;;;;;;5002885;28;82263;-59
2024/02/25 00:26:36;;;;;;;;;;;12.00;84.30;;;;;;5000522;28;82472;-58
2024/02/25 00:29:02;;;;;;;;;;;12.00;84.30;;;;;;4998872;28;82844;-59
2024/02/25 00:31:27;;;;;;;;;;;12.00;84.30;;;;;;4995587;28;82524;-57
2024/02/25 00:33:53;;;;;;;;;;;12.00;84.30;;;;;;4996226;28;82077;-59
2024/02/25 00:36:18;;;;;;;;;;;12.00;84.30;;;;;;4996306;28;82089;-56
2024/02/25 00:38:44;;;;;;;;;;;12.00;84.30;;;;;;5001608;28;83516;-59
2024/02/25 00:41:09;;;;;;;;;;;12.00;84.40;;;;;;4997174;28;82592;-58
2024/02/25 00:43:35;;;;;;;;;;;12.00;84.50;;;;;;4994570;28;82112;-54
2024/02/25 00:46:00;;;;;;;;;;;12.00;84.50;;;;;;4998116;28;81178;-59
2024/02/25 00:48:26;;;;;;;;;;;12.00;84.50;;;;;;4999634;28;81958;-59
2024/02/25 00:50:52;;;;;;;;;;;12.00;84.60;;;;;;5002486;28;82628;-59
2024/02/25 00:53:17;;;;;;;;;;;12.00;84.60;;;;;;4996757;28;82915;-58
2024/02/25 00:55:43;;;;;;;;;;;12.00;84.60;;;;;;4999324;28;83366;-58
2024/02/25 00:58:08;;;;;;;;;;;12.00;84.70;;;;;;4995664;28;84137;-58
2024/02/25 01:00:34;;;;;;;;;;;12.00;84.80;;;;;;4998989;28;81838;-59
2024/02/25 01:02:59;;;;;;;;;;;12.00;84.80;;;;;;4997817;28;81740;-59
2024/02/25 01:05:25;;;;;;;;;;;12.00;85.00;;;;;;4998309;28;82682;-59
2024/02/25 01:07:51;;;;;;;;;;;12.00;84.90;;;;;;4998638;28;81925;-58
2024/02/25 01:10:16;;;;;;;;;;;12.00;84.90;;;;;;5004260;28;81154;-59
2024/02/25 01:12:42;;;;;;;;;;;12.00;85.00;;;;;;4999530;28;81963;-58
2024/02/25 01:15:07;;;;;;;;;;;11.90;85.00;;;;;;4997984;28;81918;-59
2024/02/25 01:17:33;;;;;;;;;;;11.90;84.90;;;;;;5003121;28;83535;-58
2024/02/25 01:19:58;;;;;;;;;;;11.90;85.00;;;;;;4999821;28;81924;-59
2024/02/25 01:22:24;;;;;;;;;;;11.90;85.00;;;;;;4999165;28;81995;-59
2024/02/25 01:24:49;;;;;;;;;;;12.00;85.10;;;;;;4997493;28;82349;-59
2024/02/25 01:27:15;;;;;;;;;;;11.90;85.10;;;;;;5001799;28;82035;-59
2024/02/25 01:29:41;;;;;;;;;;;11.90;85.00;;;;;;4996650;28;83019;-59
2024/02/25 01:32:06;;;;;;;;;;;12.00;85.20;;;;;;5005438;28;82506;-57
2024/02/25 01:34:32;;;;;;;;;;;11.90;85.20;;;;;;5003167;28;81179;-59
2024/02/25 01:36:57;;;;;;;;;;;11.90;85.20;;;;;;4999101;28;83474;-59
2024/02/25 01:39:23;;;;;;;;;;;11.90;85.20;;;;;;4997159;28;82001;-58
2024/02/25 01:41:49;;;;;;;;;;;11.90;85.20;;;;;;4996879;28;82846;-59
2024/02/25 01:44:14;;;;;;;;;;;11.90;85.30;;;;;;4997437;28;83392;-58
2024/02/25 01:46:45;;;;;;;;;;;11.90;85.30;;;;;;5002532;28;82682;-59
2024/02/25 01:49:12;;;;;;;;;;;11.90;85.30;;;;;;5000543;28;82957;-59
2024/02/25 01:51:38;;;;;;;;;;;11.90;85.30;;;;;;4996771;28;81967;-59
2024/02/25 01:54:04;;;;;;;;;;;11.90;85.30;;;;;;5006741;28;81920;-58
2024/02/25 01:56:29;;;;;;;;;;;11.90;85.40;;;;;;4997131;28;82828;-59
2024/02/25 01:58:56;;;;;;;;;;;11.90;85.40;;;;;;4996882;28;81714;-59
2024/02/25 02:01:22;;;;;;;;;;;11.90;85.40;;;;;;4995955;28;82058;-59
2024/02/25 02:03:47;;;;;;;;;;;11.90;85.40;;;;;;4996894;28;83487;-59
2024/02/25 02:06:13;;;;;;;;;;;11.90;85.30;;;;;;4992507;28;83723;-59
2024/02/25 02:08:38;;;;;;;;;;;11.90;85.40;;;;;;4995190;28;83774;-58
2024/02/25 02:11:14;;;;;;;;;;;11.90;85.50;;;;;;4998149;28;82372;-59
2024/02/25 02:13:39;;;;;;;;;;;11.90;85.50;;;;;;5000285;28;81951;-58
2024/02/25 02:16:05;;;;;;;;;;;11.90;85.50;;;;;;4991429;28;82507;-57
2024/02/25 02:18:31;;;;;;;;;;;11.90;85.50;;;;;;4999380;28;82015;-58
2024/02/25 02:20:56;;;;;;;;;;;11.80;85.50;;;;;;4994797;28;81958;-59
2024/02/25 02:23:22;;;;;;;;;;;11.80;85.50;;;;;;5001304;28;81101;-59
2024/02/25 02:25:47;;;;;;;;;;;11.80;85.50;;;;;;4995832;28;81821;-59
2024/02/25 02:28:13;;;;;;;;;;;11.80;85.50;;;;;;5003231;28;82001;-59
2024/02/25 02:30:38;;;;;;;;;;;11.80;85.50;;;;;;5000820;28;83461;-58
2024/02/25 02:33:04;;;;;;;;;;;11.80;85.60;;;;;;5001672;28;83474;-59
2024/02/25 02:35:29;;;;;;;;;;;11.80;85.50;;;;;;5005754;28;81997;-59
2024/02/25 02:37:55;;;;;;;;;;;11.80;85.50;;;;;;5002376;28;81850;-56
2024/02/25 02:40:21;;;;;;;;;;;11.80;85.60;;;;;;5000070;28;81946;-58
2024/02/25 02:42:48;;;;;;;;;;;11.80;85.60;;;;;;5002302;28;83568;-59
2024/02/25 02:45:13;;;;;;;;;;;11.80;85.60;;;;;;5001578;28;81867;-59
2024/02/25 02:47:39;;;;;;;;;;;11.80;85.60;;;;;;5000062;28;82756;-56
2024/02/25 02:50:05;;;;;;;;;;;11.80;85.50;;;;;;4999027;28;82620;-59
2024/02/25 02:52:31;;;;;;;;;;;11.80;85.50;;;;;;4998235;28;81897;-58
2024/02/25 02:54:56;;;;;;;;;;;11.80;85.50;;;;;;4999550;28;83795;-59
2024/02/25 02:57:22;;;;;;;;;;;11.80;85.60;;;;;;5006217;28;82338;-59
2024/02/25 02:59:48;;;;;;;;;;;11.80;85.70;;;;;;5002077;28;82093;-58
2024/02/25 03:02:13;;;;;;;;;;;11.80;85.60;;;;;;5002163;28;82689;-59
2024/02/25 03:04:39;;;;;;;;;;;11.80;85.60;;;;;;5000403;28;82553;-58
2024/02/25 03:07:05;;;;;;;;;;;11.80;85.70;;;;;;5000193;28;81908;-59
2024/02/25 03:09:30;;;;;;;;;;;11.70;85.60;;;;;;5002637;28;82506;-59
2024/02/25 03:11:56;;;;;;;;;;;11.70;85.60;;;;;;5001867;28;82662;-59
2024/02/25 03:14:21;;;;;;;;;;;11.70;85.70;;;;;;5000090;28;82690;-58
2024/02/25 03:16:47;;;;;;;;;;;11.70;85.70;;;;;;4997575;28;82130;-59
2024/02/25 03:19:13;;;;;;;;;;;11.80;85.80;;;;;;5001003;28;82793;-59
2024/02/25 03:21:39;;;;;;;;;;;11.70;85.80;;;;;;4999318;28;82414;-59
2024/02/25 03:24:06;;;;;;;;;;;11.70;85.70;;;;;;5002320;28;82258;-59
2024/02/25 03:26:31;;;;;;;;;;;11.70;85.80;;;;;;5002169;28;82332;-59
2024/02/25 03:28:57;;;;;;;;;;;11.70;85.80;;;;;;4999971;28;81892;-58
2024/02/25 03:31:22;;;;;;;;;;;11.70;85.80;;;;;;5002603;28;81993;-59
2024/02/25 03:33:48;;;;;;;;;;;11.70;85.80;;;;;;5001280;28;82051;-60
2024/02/25 03:36:13;;;;;;;;;;;11.70;85.90;;;;;;5001081;28;82261;-58
2024/02/25 03:38:42;;;;;;;;;;;11.70;85.90;;;;;;4996926;28;82587;-59
2024/02/25 03:41:07;;;;;;;;;;;11.70;85.90;;;;;;4999175;28;83085;-55
2024/02/25 03:43:33;;;;;;;;;;;11.70;85.90;;;;;;4996179;28;82952;-59
2024/02/25 03:45:58;;;;;;;;;;;11.70;85.90;;;;;;4994130;28;82498;-59
2024/02/25 03:48:24;;;;;;;;;;;11.70;85.90;;;;;;5003046;28;82441;-58
2024/02/25 03:50:49;;;;;;;;;;;11.70;86.00;;;;;;4998415;28;81901;-59
2024/02/25 03:53:15;;;;;;;;;;;11.70;86.00;;;;;;4992972;28;81954;-59
2024/02/25 03:55:41;;;;;;;;;;;11.70;86.10;;;;;;5000462;28;83363;-59
2024/02/25 03:58:06;;;;;;;;;;;11.60;86.00;;;;;;4996954;28;82187;-56
2024/02/25 04:00:32;;;;;;;;;;;11.70;86.10;;;;;;5002730;28;82810;-59
2024/02/25 04:02:57;;;;;;;;;;;11.70;86.10;;;;;;5001878;28;81954;-58
2024/02/25 04:05:23;;;;;;;;;;;11.60;86.00;;;;;;4996783;28;81913;-58
2024/02/25 04:07:48;;;;;;;;;;;11.60;86.00;;;;;;4997366;28;83577;-59
2024/02/25 04:10:14;;;;;;;;;;;11.60;86.10;;;;;;4997391;28;82043;-59
2024/02/25 04:12:40;;;;;;;;;;;11.60;86.10;;;;;;4993028;28;82071;-59
2024/02/25 04:15:06;;;;;;;;;;;11.60;86.10;;;;;;4998447;28;82657;-59
2024/02/25 04:17:32;;;;;;;;;;;11.60;86.10;;;;;;4999597;28;82362;-59
2024/02/25 04:19:57;;;;;;;;;;;11.60;86.10;;;;;;4997232;28;82103;-59
2024/02/25 04:22:24;;;;;;;;;;;11.60;86.10;;;;;;5000120;28;82371;-59
2024/02/25 04:24:49;;;;;;;;;;;11.60;86.10;;;;;;4997684;28;82149;-58
2024/02/25 04:27:15;;;;;;;;;;;11.60;86.10;;;;;;5000984;28;82742;-59
2024/02/25 04:29:43;;;;;;;;;;;11.60;86.20;;;;;;4993979;28;81932;-59
2024/02/25 04:32:09;;;;;;;;;;;11.60;86.20;;;;;;4991973;28;82853;-58
2024/02/25 04:34:35;;;;;;;;;;;11.60;86.20;;;;;;4998094;28;82608;-59
2024/02/25 04:37:01;;;;;;;;;;;11.60;86.20;;;;;;4996157;28;82059;-59
2024/02/25 04:39:26;;;;;;;;;;;11.60;86.20;;;;;;4998682;28;81943;-59
2024/02/25 04:41:52;;;;;;;;;;;11.60;86.20;;;;;;5001963;28;82908;-59
2024/02/25 04:44:18;;;;;;;;;;;11.60;86.20;;;;;;5002580;28;81875;-59
2024/02/25 04:46:43;;;;;;;;;;;11.60;86.30;;;;;;4999094;28;81940;-59
2024/02/25 04:49:09;;;;;;;;;;;11.60;86.30;;;;;;5002633;28;81102;-59
2024/02/25 04:51:35;;;;;;;;;;;11.60;86.30;;;;;;4995808;28;82390;-60
2024/02/25 04:54:03;;;;;;;;;;;11.60;86.30;;;;;;5001268;28;82702;-59
2024/02/25 04:56:29;;;;;;;;;;;11.60;86.40;;;;;;4994923;28;83397;-58
2024/02/25 04:58:55;;;;;;;;;;;11.50;86.30;;;;;;4998598;28;82986;-57
2024/02/25 05:01:20;;;;;;;;;;;11.50;86.30;;;;;;4996217;28;83765;-59
2024/02/25 05:03:46;;;;;;;;;;;11.50;86.30;;;;;;4995930;28;81996;-59
2024/02/25 05:06:12;;;;;;;;;;;11.50;86.40;;;;;;5001368;28;82612;-59
2024/02/25 05:08:38;;;;;;;;;;;11.50;86.30;;;;;;4999623;28;82036;-57
2024/02/25 05:11:03;;;;;;;;;;;11.50;86.30;;;;;;4992840;28;82017;-58
2024/02/25 05:13:29;;;;;;;;;;;11.50;86.30;;;;;;4997972;28;81845;-59
2024/02/25 05:15:55;;;;;;;;;;;11.50;86.30;;;;;;5006306;28;82065;-59
2024/02/25 05:18:20;;;;;;;;;;;11.50;86.30;;;;;;4995770;28;82101;-59
2024/02/25 05:20:46;;;;;;;;;;;11.50;86.30;;;;;;4996347;28;85500;-59
2024/02/25 05:23:12;;;;;;;;;;;11.50;86.40;;;;;;4997339;28;82708;-59
2024/02/25 05:25:37;;;;;;;;;;;11.50;86.40;;;;;;4994317;28;82856;-55
2024/02/25 05:28:03;;;;;;;;;;;11.50;86.40;;;;;;4998507;28;82441;-59
2024/02/25 05:30:29;;;;;;;;;;;11.50;86.30;;;;;;4993831;28;81905;-59
2024/02/25 05:32:55;;;;;;;;;;;11.50;86.40;;;;;;4995629;28;82985;-59
2024/02/25 05:35:20;;;;;;;;;;;11.50;86.40;;;;;;4998188;28;82157;-59
2024/02/25 05:37:46;;;;;;;;;;;11.50;86.40;;;;;;4996828;28;81806;-59
2024/02/25 05:40:12;;;;;;;;;;;11.50;86.40;;;;;;4998128;28;83000;-59
2024/02/25 05:42:37;;;;;;;;;;;11.40;86.50;;;;;;4994805;28;82026;-56
2024/02/25 05:45:03;;;;;;;;;;;11.40;86.40;;;;;;4993934;28;83706;-59
2024/02/25 05:47:29;;;;;;;;;;;11.40;86.40;;;;;;4997331;28;85277;-59
2024/02/25 05:49:55;;;;;;;;;;;11.50;86.60;;;;;;5032698;28;82034;-59
2024/02/25 05:52:21;;;;;;;;;;;11.50;86.50;;;;;;4995082;28;82409;-59
2024/02/25 05:54:46;;;;;;;;;;;11.40;86.50;;;;;;4994994;28;83625;-59
2024/02/25 05:57:12;;;;;;;;;;;11.40;86.50;;;;;;4992977;28;82639;-59
2024/02/25 05:59:38;;;;;;;;;;;11.40;86.50;;;;;;4994287;28;82365;-56
2024/02/25 06:02:03;;;;;;;;;;;11.50;86.60;;;;;;4996910;28;81425;-59
2024/02/25 06:04:29;;;;;;;;;;;11.40;86.60;;;;;;4993586;28;82322;-57
2024/02/25 06:06:55;;;;;;;;;;;11.40;86.60;;;;;;4999936;28;82847;-59
2024/02/25 06:09:21;;;;;;;;;;;11.40;86.50;;;;;;5003386;28;83115;-59
2024/02/25 06:11:48;;;;;;;;;;;11.40;86.50;;;;;;4998287;28;83753;-59
2024/02/25 06:14:14;;;;;;;;;;;11.40;86.60;;;;;;5000729;28;82030;-59
2024/02/25 06:16:40;;;;;;;;;;;11.40;86.60;;;;;;4998780;28;82979;-59
2024/02/25 06:19:06;;;;;;;;;;;11.40;86.60;;;;;;4997995;28;83477;-57
2024/02/25 06:21:32;;;;;;;;;;;11.40;86.60;;;;;;4997664;28;81993;-59
2024/02/25 06:23:58;;;;;;;;;;;11.40;86.60;;;;;;4999123;28;82955;-59
2024/02/25 06:26:23;;;;;;;;;;;11.40;87.20;;;;;;5002483;28;81950;-58
2024/02/25 06:28:49;;;;;;;;;;;11.40;86.70;;;;;;4999974;28;82102;-59
2024/02/25 06:31:14;;;;;;;;;;;11.40;86.60;;;;;;5000660;28;82067;-58
2024/02/25 06:33:40;;;;;;;;;;;11.40;86.60;;;;;;4997565;28;82891;-59
2024/02/25 06:36:06;;;;;;;;;;;11.40;86.60;;;;;;4998687;28;82575;-59
2024/02/25 06:38:32;;;;;;;;;;;11.40;86.60;;;;;;5000803;28;82604;-58
2024/02/25 06:40:58;;;;;;;;;;;11.40;86.60;;;;;;5002033;28;82627;-58
2024/02/25 06:43:24;;;;;;;;;;;11.40;86.60;;;;;;4998573;28;81952;-59
2024/02/25 06:45:50;;;;;;;;;;;11.40;86.60;;;;;;4997307;28;83819;-59
2024/02/25 06:48:16;;;;;;;;;;;11.40;86.70;;;;;;4998160;28;82334;-59
2024/02/25 06:50:41;;;;;;;;;;;11.30;86.60;;;;;;4996749;28;82106;-58
2024/02/25 06:53:07;;;;;;;;;;;11.40;86.70;;;;;;5003987;28;82641;-57
2024/02/25 06:55:32;;;;;;;;;;;11.30;86.70;;;;;;4999537;28;83349;-58
2024/02/25 06:57:58;;;;;;;;;;;11.40;86.70;;;;;;4997644;28;84089;-58
2024/02/25 07:00:23;;;;;;;;;;;11.30;86.60;;;;;;4996277;28;82844;-59
2024/02/25 07:02:54;;;;;;;;;;;11.30;86.60;;;;;;4996465;28;82906;-57
2024/02/25 07:05:20;;;;;;;;;;;11.30;86.70;;;;;;4998163;28;83450;-58
2024/02/25 07:07:46;;;;;;;;;;;11.30;86.70;;;;;;5001727;28;81953;-59
2024/02/25 07:10:12;;;;;;;;;;;11.30;86.70;;;;;;4998179;28;82777;-59
2024/02/25 07:12:37;;;;;;;;;;;11.30;86.70;;;;;;5000007;28;83677;-52
2024/02/25 07:15:04;;;;;;;;;;;11.30;86.70;;;;;;5001393;28;81237;-57
2024/02/25 07:17:29;;;;;;;;;;;11.30;86.70;;;;;;4995403;28;82208;-59
2024/02/25 07:19:55;;;;;;;;;;;11.30;86.80;;;;;;4996348;28;82364;-58
2024/02/25 07:22:21;;;;;;;;;;;11.30;86.70;;;;;;4998207;28;83055;-59
2024/02/25 07:24:46;;;;;;;;;;;11.30;86.70;;;;;;4997321;28;82835;-58
2024/02/25 07:27:12;;;;;;;;;;;11.30;86.70;;;;;;4996794;28;82248;-59
2024/02/25 07:29:37;;;;;;;;;;;11.30;86.70;;;;;;4995614;28;82434;-54
2024/02/25 07:32:03;;;;;;;;;;;11.30;86.70;;;;;;4995114;28;82465;-59
2024/02/25 07:34:29;;;;;;;;;;;11.30;86.80;;;;;;4997639;28;81912;-59
2024/02/25 07:36:54;;;;;;;;;;;11.30;86.80;;;;;;4998239;28;82955;-59
2024/02/25 07:39:20;;;;;;;;;;;11.30;87.40;;;;;;4998501;28;81353;-59
2024/02/25 07:41:47;;;;;;;;;;;11.30;86.80;;;;;;4999716;28;82447;-59
2024/02/25 07:44:13;;;;;;;;;;;11.30;86.80;;;;;;4998031;28;82604;-59
2024/02/25 07:46:38;;;;;;;;;;;11.30;86.80;;;;;;4995331;28;83030;-58
2024/02/25 07:49:04;;;;;;;;;;;11.30;86.90;;;;;;4999097;28;82835;-59
2024/02/25 07:51:35;;;;;;;;;;;11.30;86.80;;;;;;4997962;28;82412;-58
2024/02/25 07:54:01;;;;;;;;;;;11.30;86.80;;;;;;4998867;28;81915;-59
2024/02/25 07:56:27;;;;;;;;;;;11.30;86.80;;;;;;4994834;28;81992;-59
2024/02/25 07:58:53;;;;;;;;;;;11.30;86.80;;;;;;4997959;28;83605;-59
2024/02/25 08:01:18;;;;;;;;;;;11.30;86.90;;;;;;4995735;28;82042;-55
2024/02/25 08:03:44;;;;;;;;;;;11.30;87.00;;;;;;5004494;28;81515;-59
2024/02/25 08:06:09;;;;;;;;;;;11.30;86.90;;;;;;4996132;28;81947;-59
2024/02/25 08:08:35;;;;;;;;;;;11.30;86.80;;;;;;4999143;28;81987;-59
2024/02/25 08:11:01;;;;;;;;;;;11.30;86.90;;;;;;4998730;28;84725;-59
2024/02/25 08:13:26;;;;;;;;;;;11.30;86.90;;;;;;4996445;28;81973;-59
2024/02/25 08:15:52;;;;;;;;;;;11.30;86.90;;;;;;4998445;28;82002;-59
2024/02/25 08:18:17;;;;;;;;;;;11.30;86.90;;;;;;4999038;28;82715;-59
2024/02/25 08:20:43;;;;;;;;;;;11.30;86.90;;;;;;4999198;28;82099;-59
2024/02/25 08:23:08;;;;;;;;;;;11.30;86.90;;;;;;5002686;28;82657;-57
2024/02/25 08:25:34;;;;;;;;;;;11.30;86.90;;;;;;4997387;28;81922;-59
2024/02/25 08:27:59;;;;;;;;;;;11.30;86.90;;;;;;4996394;28;81196;-59
2024/02/25 08:30:25;;;;;;;;;;;11.30;86.90;;;;;;4994179;28;82602;-59
2024/02/25 08:32:51;;;;;;;;;;;11.30;86.90;;;;;;4997828;28;81525;-59
2024/02/25 08:35:17;;;;;;;;;;;11.30;86.90;;;;;;4995986;28;82944;-59
2024/02/25 08:37:42;;;;;;;;;;;11.30;86.90;;;;;;4992490;28;82107;-59
2024/02/25 08:40:08;;;;;;;;;;;11.30;86.90;;;;;;4998841;28;81981;-51
2024/02/25 08:42:34;;;;;;;;;;;11.30;86.90;;;;;;4996494;28;83297;-59
2024/02/25 08:44:59;;;;;;;;;;;11.20;86.90;;;;;;4997566;28;82113;-59
2024/02/25 08:47:25;;;;;;;;;;;11.30;87.00;;;;;;4995587;28;82283;-60
2024/02/25 08:49:50;;;;;;;;;;;11.30;87.00;;;;;;4994848;28;83815;-60
2024/02/25 08:52:17;;;;;;;;;;;11.30;87.00;;;;;;4995538;28;81288;-58
2024/02/25 08:54:43;;;;;;;;;;;11.30;87.00;;;;;;4998611;28;82196;-59
2024/02/25 08:57:09;;;;;;;;;;;11.20;87.50;;;;;;4997149;28;82880;-58
2024/02/25 08:59:35;;;;;;;;;;;11.30;87.00;;;;;;4997885;28;82839;-58
2024/02/25 09:02:01;;;;;;;;;;;11.20;87.00;;;;;;5005827;28;82935;-59
2024/02/25 09:04:30;;;;;;;;;;;11.30;87.10;;;;;;4994951;28;81936;-59
2024/02/25 09:06:56;;;;;;;;;;;11.20;87.00;;;;;;4993282;28;81862;-59
2024/02/25 09:09:21;;;;;;;;;;;11.20;87.00;;;;;;4995785;28;83609;-59
2024/02/25 09:11:47;;;;;;;;;;;11.20;87.00;;;;;;4999718;28;82021;-60
2024/02/25 09:14:13;;;;;;;;;;;11.20;87.00;;;;;;4998735;28;82001;-56
2024/02/25 09:16:38;;;;;;;;;;;11.30;87.10;;;;;;4994384;28;81668;-59
2024/02/25 09:19:04;;;;;;;;;;;11.20;87.00;;;;;;4997892;28;81763;-60
2024/02/25 09:21:30;;;;;;;;;;;11.20;87.10;;;;;;5002789;28;82100;-60
2024/02/25 09:23:56;;;;;;;;;;;11.30;87.20;;;;;;4996835;28;82791;-59
2024/02/25 09:26:22;;;;;;;;;;;11.20;87.10;;;;;;4997020;28;83223;-59
2024/02/25 09:28:48;;;;;;;;;;;11.20;87.10;;;;;;4994356;28;82521;-59
2024/02/25 09:31:19;;;;;;;;;;;11.20;87.00;;;;;;4995948;28;82563;-59
2024/02/25 09:33:45;;;;;;;;;;;11.20;87.10;;;;;;4994651;28;82043;-60
2024/02/25 09:36:11;;;;;;;;;;;11.20;87.10;;;;;;4994381;28;82697;-57
2024/02/25 09:38:36;;;;;;;;;;;11.30;87.20;;;;;;4998618;28;82658;-60
2024/02/25 09:41:02;;;;;;;;;;;11.20;87.10;;;;;;5005071;28;82622;-59
2024/02/25 09:43:28;;;;;;;;;;;11.30;87.20;;;;;;4999887;28;82656;-58
2024/02/25 09:45:56;;;;;;;;;;;11.30;87.20;;;;;;5000144;28;83078;-59
2024/02/25 09:48:24;;;;;;;;;;;11.20;87.10;;;;;;5000411;28;83894;-59
2024/02/25 09:50:51;;;;;;;;;;;11.20;87.20;;;;;;5000052;28;81921;-59
2024/02/25 09:53:17;;;;;;;;;;;11.20;87.20;;;;;;4995440;28;82182;-59
2024/02/25 09:55:43;;;;;;;;;;;11.30;87.20;;;;;;5002359;28;83286;-60
2024/02/25 09:58:08;;;;;;;;;;;11.30;87.20;;;;;;5000703;28;81964;-59
2024/02/25 10:00:34;;;;;;;;;;;11.30;87.20;;;;;;5004130;28;82759;-60
2024/02/25 10:03:00;;;;;;;;;;;11.30;87.30;;;;;;5003374;28;83228;-60
2024/02/25 10:05:25;;;;;;;;;;;11.30;87.30;;;;;;4997874;28;81682;-57
2024/02/25 10:08:04;;;;;;;;;;;11.30;87.30;;;;;;5003512;28;82867;-59
2024/02/25 10:10:32;;;;;;;;;;;11.30;87.30;;;;;;4997130;28;82172;-60
2024/02/25 10:13:00;;;;;;;;;;;11.30;87.30;;;;;;4997192;28;84040;-59
2024/02/25 10:15:25;;;;;;;;;;;11.30;87.20;;;;;;4997857;28;82550;-59
2024/02/25 10:17:51;;;;;;;;;;;11.30;87.20;;;;;;5004954;28;81782;-60
2024/02/25 10:20:16;;;;;;;;;;;11.30;87.10;;;;;;4998466;28;81937;-59
2024/02/25 10:22:42;;;;;;;;;;;11.30;87.10;;;;;;4996877;28;82800;-59
2024/02/25 10:25:08;;;;;;;;;;;11.30;87.10;;;;;;5000818;28;82145;-54
2024/02/25 10:27:33;;;;;;;;;;;11.30;87.20;;;;;;5004045;28;82945;-60
2024/02/25 10:29:59;;;;;;;;;;;11.30;87.00;;;;;;4998360;28;81716;-60
2024/02/25 10:32:28;;;;;;;;;;;11.30;87.10;;;;;;4996804;28;82089;-59
2024/02/25 10:34:55;;;;;;;;;;;11.30;87.20;;;;;;4998037;28;83490;-59
2024/02/25 10:37:22;;;;;;;;;;;11.30;87.30;;;;;;4999598;28;82993;-58
2024/02/25 10:39:50;;;;;;;;;;;11.30;87.20;;;;;;4996629;28;83779;-58
2024/02/25 10:42:15;;;;;;;;;;;11.30;87.20;;;;;;4997445;28;82909;-59
2024/02/25 10:44:41;;;;;;;;;;;11.30;87.20;;;;;;4994738;28;81995;-59
2024/02/25 10:47:11;;;;;;;;;;;11.30;87.40;;;;;;4998086;28;83262;-59
2024/02/25 10:49:37;;;;;;;;;;;11.30;87.40;;;;;;5003075;28;82403;-59
2024/02/25 10:52:03;;;;;;;;;;;11.30;87.50;;;;;;4998358;28;82244;-59
2024/02/25 10:54:29;;;;;;;;;;;11.30;87.30;;;;;;4997257;28;82754;-59
2024/02/25 10:56:56;;;;;;;;;;;11.40;87.50;;;;;;5001540;28;81941;-59
2024/02/25 10:59:23;;;;;;;;;;;11.30;87.40;;;;;;5000439;28;82056;-59
2024/02/25 11:01:50;;;;;;;;;;;11.30;87.40;;;;;;4997983;28;83681;-59
2024/02/25 11:04:17;;;;;;;;;;;11.30;87.50;;;;;;5001016;28;82076;-59
2024/02/25 11:06:42;;;;;;;;;;;11.30;87.40;;;;;;4999842;28;83053;-59
2024/02/25 11:09:12;;;;;;;;;;;11.40;87.40;;;;;;4995548;28;83697;-53
2024/02/25 11:11:42;;;;;;;;;;;11.30;87.70;;;;;;4998954;28;82762;-57
2024/02/25 11:14:13;;;;;;;;;;;11.40;87.70;;;;;;4995258;28;82802;-56
2024/02/25 11:16:42;;;;;;;;;;;11.40;87.60;;;;;;4999664;28;81961;-56
2024/02/25 11:19:09;;;;;;;;;;;11.40;87.70;;;;;;4998983;28;83879;-59
2024/02/25 11:21:35;;;;;;;;;;;11.40;87.70;;;;;;5000604;28;82152;-59
2024/02/25 11:24:01;;;;;;;;;;;11.40;87.70;;;;;;5001478;28;81981;-60
2024/02/25 11:26:32;;;;;;;;;;;11.40;87.70;;;;;;5001643;28;82981;-59
2024/02/25 11:29:20;;;;;;;;;;;11.40;87.70;;;;;;4994832;28;82934;-59
2024/02/25 11:31:50;;;;;;;;;;;11.40;87.70;;;;;;4999167;28;82040;-59
2024/02/25 11:34:20;;;;;;;;;;;11.40;87.70;;;;;;5002169;28;83171;-59
2024/02/25 11:36:53;;;;;;;;;;;11.40;87.70;;;;;;4992999;28;82101;-58
2024/02/25 11:39:26;;;;;;;;;;;11.40;87.70;;;;;;4995070;28;82034;-59
2024/02/25 11:41:56;;;;;;;;;;;11.40;87.90;;;;;;4995211;28;83530;-59
2024/02/25 11:44:22;;;;;;;;;;;11.40;87.80;;;;;;4999241;28;81951;-59
2024/02/25 11:46:48;;;;;;;;;;;11.40;88.00;;;;;;5000910;28;81962;-59
2024/02/25 11:49:14;;;;;;;;;;;11.40;87.80;;;;;;5000480;28;83328;-55
2024/02/25 11:51:44;;;;;;;;;;;11.40;87.90;;;;;;4998023;28;82949;-53
2024/02/25 11:54:11;;;;;;;;;;;11.40;88.10;;;;;;5000686;28;83996;-50
2024/02/25 11:56:36;;;;;;;;;;;11.30;88.10;;;;;;4998347;28;83599;-61
2024/02/25 11:59:02;;;;;;;;;;;11.30;89.00;;;;;;4997893;28;82942;-52
2024/02/25 12:01:27;;;;;;;;;;;11.40;88.60;;;;;;4993799;28;83124;-45
2024/02/25 12:03:53;;;;;;;;;;;;;;;;;;4998514;28;83217;-53
2024/02/25 12:06:19;;;;;;;;;;;;;;;;;;4992800;28;81944;-49
2024/02/25 12:08:46;;;;;;;;;;;;;;;;;;4998216;28;82813;-53
2024/02/25 12:11:12;;;;;;;;;;;;;;;;;;4998410;28;81753;-63
2024/02/25 12:13:39;;;;;;;;;;;;;;;;;;4994157;28;82521;-52
2024/02/25 12:16:05;;;;;;;;;;;;;;;;;;4995816;28;84760;-62
2024/02/25 12:18:31;;;;;;;;;;;;;;;;;;5003384;28;81946;-50
2024/02/25 12:20:57;;;;;;;;;;;;;;;;;;4994960;28;81939;-62
2024/02/25 12:23:23;;;;;;;;;;;;;;;;;;4996881;28;81978;-57
2024/02/25 12:25:53;;;;;;;;;;;;;;;;;;4995445;28;82085;-51
2024/02/25 12:28:19;;;;;;;;;;;;;;;;;;4997054;28;81826;-47
2024/02/25 12:30:45;;;;;;;;;;;;;;;;;;5001302;28;81953;-46
2024/02/25 12:33:11;;;;;;;;;;;;;;;;;;4998422;28;81596;-48
2024/02/25 12:35:37;;;;;;;;;;;;;;;;;;4996592;28;82949;-44
2024/02/25 12:38:03;;;;;;;;;;;;;;;;;;4999402;28;82826;-45
2024/02/25 12:40:29;;;;;;;;;;;;;;;;;;4997710;28;84356;-46
2024/02/25 12:42:57;;;;;;;;;;;;;;;;;;4995884;28;82067;-59
2024/02/25 12:45:23;;;;;;;;;;;;;;;;;;4993794;28;83754;-52
2024/02/25 12:47:49;;;;;;;;;;;;;;;;;;4998947;28;82529;-58
2024/02/25 12:50:15;;;;;;;;;;;;;;;;;;5001739;28;82656;-53
2024/02/25 12:52:42;;;;;;;;;;;;;;;;;;5000949;28;81898;-56
2024/02/25 12:55:09;;;;;;;;;;;;;;;;;;4997397;28;83608;-58
2024/02/25 12:57:36;;;;;;;;;;;;;;;;;;5003829;28;81249;-58
2024/02/25 13:00:02;;;;;;;;;;;;;;;;;;4998804;28;82024;-59
2024/02/25 13:02:28;;;;;;;;;;;;;;;;;;4996773;28;81989;-58
2024/02/25 13:04:54;;;;;;;;;;;;;;;;;;5001144;28;83058;-58
2024/02/25 13:07:20;;;;;;;;;;;;;;;;;;5000071;28;82863;-58
2024/02/25 13:09:45;;;;;;;;;;;;;;;;;;4995562;28;82116;-58
2024/02/25 13:12:11;;;;;;;;;;;;;;;;;;4993217;28;82177;-58
2024/02/25 13:14:37;;;;;;;;;;;;;;;;;;4992276;28;82188;-58
2024/02/25 13:17:03;;;;;;;;;;;;;;;;;;4999683;28;81887;-58
2024/02/25 13:19:29;;;;;;;;;;;;;;;;;;4999325;28;81926;-59
2024/02/25 13:21:55;;;;;;;;;;;;;;;;;;4997856;28;81880;-57
2024/02/25 13:24:23;;;;;;;;;;;;;;;;;;4998498;28;81981;-59
2024/02/25 13:26:48;;;;;;;;;;;;;;;;;;4998894;28;82789;-61
2024/02/25 13:29:14;;;;;;;;;;;;;;;;;;4994486;28;83358;-60
2024/02/25 13:31:40;;;;;;;;;;;;;;;;;;4991795;28;82353;-60
2024/02/25 13:34:06;;;;;;;;;;;;;;;;;;4996198;28;82587;-60
2024/02/25 13:36:34;;;;;;;;;;;;;;;;;;4997251;28;82036;-60
2024/02/25 13:39:02;;;;;;;;;;;;;;;;;;4995714;28;82231;-60
2024/02/25 13:41:29;;;;;;;;;;;;;;;;;;4995015;28;83506;-60
2024/02/25 13:43:55;;;;;;;;;;;;;;;;;;4999773;28;82638;-59
2024/02/25 13:46:21;;;;;;;;;;;;;;;;;;5000867;28;81950;-60
2024/02/25 13:48:49;;;;;;;;;;;;;;;;;;4997175;28;81986;-60
2024/02/25 13:51:15;;;;;;;;;;;;;;;;;;4993832;28;82533;-59
2024/02/25 13:53:41;;;;;;;;;;;;;;;;;;4997290;28;83381;-58
2024/02/25 13:56:07;;;;;;;;;;;;;;;;;;5000816;28;81912;-59
2024/02/25 13:58:33;;;;;;;;;;;;;;;;;;4993434;28;81999;-60
2024/02/25 14:00:59;;;;;;;;;;;;;;;;;;5000349;28;81884;-55
2024/02/25 14:03:24;;;;;;;;;;;;;;;;;;4996058;28;81765;-60
2024/02/25 14:05:50;;;;;;;;;;;;;;;;;;5001199;28;82289;-60
2024/02/25 14:08:18;;;;;;;;;;;;;;;;;;4992961;28;82169;-57
2024/02/25 14:10:44;;;;;;;;;;;;;;;;;;4995392;28;82453;-46
2024/02/25 14:13:09;;;;;;;;;;;;;;;;;;5000884;28;83044;-52
2024/02/25 14:15:35;;;;;;;;;;;;;;;;;;4999224;28;81996;-58
2024/02/25 14:18:02;;;;;;;;;;;;;;;;;;4993648;28;83529;-59
2024/02/25 14:20:31;;;;;;;;;;;;;;;;;;4996895;28;83437;-58
2024/02/25 14:22:57;;;;;;;;;;;;;;;;;;4997530;28;82349;-42
2024/02/25 14:25:23;;;;;;;;;;;;;;;;;;4997732;28;82121;-59
2024/02/25 14:27:49;;;;;;;;;;;;;;;;;;4999104;28;82030;-57
2024/02/25 14:30:15;;;;;;;;;;;;;;;;;;4997243;28;81890;-61
2024/02/25 14:32:41;;;;;;;;;;;;;;;;;;4999687;28;82907;-57
2024/02/25 14:35:07;;;;;;;;;;;;;;;;;;4999813;28;82636;-59